createdAt,value
2023-02-15T00:00:45.022Z,4.70
2023-02-15T00:05:47.026Z,4.78
2023-02-15T00:10:48.962Z,5.03
2023-02-15T00:15:50.982Z,4.63
2023-02-15T00:20:52.952Z,4.38
2023-02-15T00:26:11.877Z,4.53
2023-02-15T00:31:15.377Z,4.82
2023-02-15T00:36:17.628Z,5.07
2023-02-15T00:41:19.762Z,4.88
2023-02-15T00:46:21.912Z,5.13
2023-02-15T00:51:24.063Z,5.50
2023-02-15T00:56:26.168Z,5.25
2023-02-15T01:01:28.248Z,5.15
2023-02-15T01:06:30.204Z,4.47
2023-02-15T01:11:32.259Z,5.38
2023-02-15T01:16:34.349Z,4.40
2023-02-15T01:21:36.274Z,4.00
2023-02-15T01:26:38.375Z,4.60
2023-02-15T01:31:40.912Z,4.47
2023-02-15T01:36:43.008Z,4.47
2023-02-15T01:41:45.004Z,4.45
2023-02-15T01:46:52.622Z,4.20
2023-02-15T01:51:54.683Z,4.05
2023-02-15T01:57:05.033Z,4.22
2023-02-15T02:02:09.318Z,4.25
2023-02-15T02:07:11.401Z,4.20
2023-02-15T02:12:14.354Z,4.90
2023-02-15T02:17:26.772Z,4.47
2023-02-15T02:22:41.415Z,4.60
2023-02-15T02:27:50.969Z,4.82
2023-02-15T02:32:53.252Z,5.53
2023-02-15T02:38:27.681Z,4.75
2023-02-15T02:43:35.051Z,4.55
2023-02-15T02:48:37.777Z,4.85
2023-02-15T02:53:39.856Z,4.57
2023-02-15T02:58:49.946Z,4.63
2023-02-15T03:03:56.743Z,4.80
2023-02-15T03:09:15.525Z,4.47
2023-02-15T03:14:19.606Z,4.65
2023-02-15T03:19:32.907Z,4.38
2023-02-15T03:24:38.969Z,4.72
2023-02-15T03:29:42.124Z,4.55
2023-02-15T03:34:45.005Z,4.70
2023-02-15T03:39:54.016Z,4.50
2023-02-15T03:45:02.888Z,4.43
2023-02-15T03:50:29.339Z,4.35
2023-02-15T03:55:31.790Z,4.95
2023-02-15T04:00:55.825Z,4.43
2023-02-15T04:05:57.774Z,4.97
2023-02-15T04:10:59.872Z,4.43
2023-02-15T04:16:06.831Z,4.95
2023-02-15T04:21:29.330Z,4.28
2023-02-15T04:26:31.262Z,4.78
2023-02-15T04:31:33.350Z,4.97
2023-02-15T04:36:35.334Z,5.05
2023-02-15T04:41:37.994Z,5.35
2023-02-15T04:46:40.532Z,5.00
2023-02-15T04:51:42.718Z,4.72
2023-02-15T04:56:44.739Z,5.03
2023-02-15T05:01:46.736Z,5.70
2023-02-15T05:06:48.815Z,4.90
2023-02-15T05:11:51.042Z,5.20
2023-02-15T05:16:55.074Z,5.57
2023-02-15T05:21:57.129Z,6.18
2023-02-15T05:27:17.879Z,6.05
2023-02-15T05:32:19.920Z,5.03
2023-02-15T05:37:22.074Z,5.60
2023-02-15T05:42:24.063Z,5.32
2023-02-15T05:47:26.111Z,5.30
2023-02-15T05:52:28.353Z,5.35
2023-02-15T05:57:30.477Z,4.57
2023-02-15T06:02:36.474Z,5.55
2023-02-15T06:07:38.644Z,5.70
2023-02-15T06:12:40.623Z,5.03
2023-02-15T06:17:43.721Z,5.00
2023-02-15T06:22:45.643Z,5.32
2023-02-15T06:27:47.800Z,6.15
2023-02-15T06:32:49.955Z,5.90
2023-02-15T06:37:52.125Z,6.15
2023-02-15T06:42:54.073Z,5.57
2023-02-15T06:47:55.956Z,6.22
2023-02-15T06:52:58.901Z,5.85
2023-02-15T06:58:00.813Z,6.32
2023-02-15T07:03:04.132Z,5.78
2023-02-15T07:08:06.089Z,5.68
2023-02-15T07:13:09.409Z,5.97
2023-02-15T07:18:11.889Z,5.55
2023-02-15T07:23:13.841Z,6.18
2023-02-15T07:28:17.054Z,5.22
2023-02-15T07:33:25.019Z,5.45
2023-02-15T07:38:27.902Z,5.50
2023-02-15T07:43:30.667Z,5.25
2023-02-15T07:48:33.781Z,5.53
2023-02-15T07:53:36.636Z,5.53
2023-02-15T07:58:56.961Z,6.00
2023-02-15T08:03:59.524Z,5.53
2023-02-15T08:09:04.170Z,5.72
2023-02-15T08:14:07.992Z,4.50
2023-02-15T08:19:15.128Z,5.20
2023-02-15T08:24:32.424Z,5.55
2023-02-15T08:29:43.358Z,5.20
2023-02-15T08:34:45.473Z,6.00
2023-02-15T08:39:47.756Z,7.15
2023-02-15T08:44:51.646Z,10.73
2023-02-15T08:49:53.801Z,7.63
2023-02-15T08:54:56.216Z,6.63
2023-02-15T08:59:58.221Z,6.72
2023-02-15T09:05:00.165Z,5.72
2023-02-15T09:10:02.118Z,4.93
2023-02-15T09:15:04.263Z,6.20
2023-02-15T09:20:06.942Z,4.22
2023-02-15T09:25:08.935Z,5.03
2023-02-15T09:30:11.516Z,5.05
2023-02-15T09:35:13.836Z,4.05
2023-02-15T09:40:17.429Z,4.57
2023-02-15T09:45:45.271Z,4.05
2023-02-15T09:51:00.086Z,4.63
2023-02-15T09:56:21.201Z,5.03
2023-02-15T10:01:42.275Z,4.53
2023-02-15T10:06:55.543Z,4.57
2023-02-15T10:12:00.176Z,4.40
2023-02-15T10:17:10.096Z,3.95
2023-02-15T10:23:09.427Z,4.47
2023-02-15T10:28:19.450Z,3.67
2023-02-15T10:33:44.097Z,4.25
2023-02-15T10:39:02.523Z,4.05
2023-02-15T10:44:12.655Z,4.07
2023-02-15T10:49:24.522Z,3.88
2023-02-15T10:54:50.439Z,3.50
2023-02-15T11:00:18.455Z,3.22
2023-02-15T11:05:27.774Z,3.47
2023-02-15T11:10:52.585Z,3.90
2023-02-15T11:15:57.494Z,3.60
2023-02-15T11:21:04.217Z,3.63
2023-02-15T11:26:14.941Z,3.63
2023-02-15T11:31:23.218Z,4.28
2023-02-15T11:36:38.983Z,3.85
2023-02-15T11:41:53.119Z,5.60
2023-02-15T11:46:55.126Z,6.30
2023-02-15T11:51:58.322Z,7.88
2023-02-15T11:57:19.238Z,4.60
2023-02-15T12:02:23.370Z,9.93
2023-02-15T12:07:33.568Z,17.30
2023-02-15T12:12:37.049Z,6.72
2023-02-15T12:17:50.514Z,6.65
2023-02-15T12:22:55.509Z,3.90
2023-02-15T12:27:57.752Z,3.10
2023-02-15T12:33:21.136Z,3.25
2023-02-15T12:38:25.711Z,2.70
2023-02-15T12:43:30.737Z,3.10
2023-02-15T12:48:32.743Z,2.97
2023-02-15T12:53:36.838Z,3.88
2023-02-15T12:58:43.532Z,4.20
2023-02-15T13:04:03.788Z,3.00
2023-02-15T13:09:32.353Z,4.10
2023-02-15T13:14:35.230Z,3.30
2023-02-15T13:19:41.115Z,4.43
2023-02-15T13:24:51.758Z,5.13
2023-02-15T13:29:59.702Z,4.38
2023-02-15T13:35:04.853Z,4.47
2023-02-15T13:40:46.714Z,4.25
2023-02-15T13:46:11.768Z,4.20
2023-02-15T13:51:22.658Z,5.15
2023-02-15T13:56:30.248Z,4.07
2023-02-15T14:01:59.536Z,3.95
2023-02-15T14:07:13.598Z,4.38
2023-02-15T14:12:53.660Z,5.15
2023-02-15T14:18:16.637Z,4.38
2023-02-15T14:24:09.437Z,4.10
2023-02-15T14:29:22.725Z,3.58
2023-02-15T14:34:38.398Z,3.35
2023-02-15T14:40:24.000Z,4.03
2023-02-15T14:45:35.107Z,4.00
2023-02-15T14:55:40.470Z,4.03
2023-02-15T15:00:42.880Z,3.75
2023-02-15T15:05:51.866Z,4.53
2023-02-15T15:10:54.019Z,4.25
2023-02-15T15:15:56.063Z,4.55
2023-02-15T15:20:58.053Z,3.70
2023-02-15T15:26:28.821Z,3.35
2023-02-15T15:31:45.556Z,3.63
2023-02-15T15:36:56.518Z,3.80
2023-02-15T15:42:14.749Z,3.78
2023-02-15T15:47:22.650Z,4.30
2023-02-15T15:52:26.033Z,3.85
2023-02-15T15:57:36.661Z,5.47
2023-02-15T16:02:51.479Z,3.63
2023-02-15T16:07:53.428Z,4.05
2023-02-15T16:12:56.057Z,3.42
2023-02-15T16:17:59.290Z,3.85
2023-02-15T16:23:23.193Z,3.58
2023-02-15T16:33:37.422Z,3.95
2023-02-15T16:38:45.756Z,4.55
2023-02-15T16:43:49.997Z,3.55
2023-02-15T16:48:53.932Z,3.28
2023-02-15T16:53:57.238Z,3.47
2023-02-15T16:58:59.950Z,3.47
2023-02-15T17:04:23.430Z,3.42
2023-02-15T17:09:26.583Z,3.20
2023-02-15T17:14:30.626Z,3.90
2023-02-15T17:19:43.206Z,4.53
2023-02-15T17:24:46.697Z,5.07
2023-02-15T17:29:53.208Z,4.68
2023-02-15T17:35:00.278Z,4.10
2023-02-15T17:40:11.579Z,3.53
2023-02-15T17:45:15.441Z,3.10
2023-02-15T17:50:23.353Z,3.22
2023-02-15T17:55:41.708Z,3.33
2023-02-15T18:01:04.893Z,3.53
2023-02-15T18:06:25.922Z,4.07
2023-02-15T18:11:40.116Z,4.57
2023-02-15T18:16:43.813Z,3.95
2023-02-15T18:21:46.475Z,4.65
2023-02-15T18:26:49.535Z,3.95
2023-02-15T18:31:56.657Z,4.15
2023-02-15T18:36:59.921Z,4.45
2023-02-15T18:42:02.076Z,3.50
2023-02-15T18:47:04.394Z,3.78
2023-02-15T18:52:06.414Z,3.80
2023-02-15T18:57:11.089Z,3.55
2023-02-15T19:02:14.743Z,3.83
2023-02-15T19:07:23.918Z,3.20
2023-02-15T19:12:27.091Z,3.45
2023-02-15T19:17:29.280Z,2.70
2023-02-15T19:22:31.922Z,3.90
2023-02-15T19:27:35.823Z,2.80
2023-02-15T19:32:37.879Z,3.20
2023-02-15T19:37:42.536Z,2.65
2023-02-15T19:42:44.734Z,2.63
2023-02-15T19:47:48.470Z,2.35
2023-02-15T19:52:51.059Z,2.60
2023-02-15T19:57:54.344Z,2.22
2023-02-15T20:02:58.074Z,2.45
2023-02-15T20:08:01.834Z,2.60
2023-02-15T20:13:03.821Z,4.20
2023-02-15T20:18:06.917Z,3.08
2023-02-15T20:23:24.458Z,2.90
2023-02-15T20:28:29.384Z,2.47
2023-02-15T20:33:31.390Z,2.70
2023-02-15T20:38:33.516Z,3.53
2023-02-15T20:43:35.470Z,3.08
2023-02-15T20:48:37.605Z,3.20
2023-02-15T20:53:39.600Z,3.20
2023-02-15T20:58:41.970Z,2.90
2023-02-15T21:03:44.520Z,3.55
2023-02-15T21:08:46.544Z,3.28
2023-02-15T21:13:49.980Z,3.15
2023-02-15T21:18:53.213Z,2.97
2023-02-15T21:23:55.504Z,3.22
2023-02-15T21:28:57.404Z,4.25
2023-02-15T21:33:59.290Z,5.03
2023-02-15T21:39:01.278Z,3.70
2023-02-15T21:44:22.154Z,5.13
2023-02-15T21:49:23.992Z,5.50
2023-02-15T21:54:26.669Z,4.28
2023-02-15T21:59:28.683Z,4.70
2023-02-15T22:04:30.804Z,5.30
2023-02-15T22:09:32.995Z,5.45
2023-02-15T22:14:37.318Z,4.15
2023-02-15T22:19:39.247Z,5.40
2023-02-15T22:24:43.232Z,5.03
2023-02-15T22:29:45.270Z,5.20
2023-02-15T22:34:47.460Z,5.10
2023-02-15T22:39:49.699Z,5.00
2023-02-15T22:44:56.035Z,5.30
2023-02-15T22:49:57.993Z,5.25
2023-02-15T22:55:00.001Z,5.75
2023-02-15T23:00:02.204Z,4.07
2023-02-15T23:05:04.427Z,4.20
2023-02-15T23:10:07.206Z,4.07
2023-02-15T23:15:11.572Z,4.78
2023-02-15T23:20:15.210Z,3.92
2023-02-15T23:25:19.254Z,4.35
2023-02-15T23:30:21.343Z,3.95
2023-02-15T23:35:23.498Z,4.93
2023-02-15T23:40:43.971Z,4.28
2023-02-15T23:45:45.949Z,3.78
2023-02-15T23:50:48.040Z,4.50
2023-02-15T23:55:49.976Z,4.22
